Louisville, KY (40201)

7:28 PM EST on February 05, 2016 (GMT -0500)
West Louisville (Parkland) | | Change Station
CLOSE
Current Station
Personal Weather Station
Location: Louisville, KY
Elevation: 466 ft
Nearby Weather Stations

Elev 466 ft 38.23 °N, 85.79 °W | Updated 2 minutes ago

Mostly Cloudy
Mostly Cloudy
37.6 °F
Feels Like 38 °F
N
0.0
Wind Variable Wind from South

Today
High -- | Low -- °F
--% Chance of Precip.
Yesterday
High -- | Low -- °F
Precip. -- in
Pressure 30.38 in
Visibility 10.0 miles
Clouds Scattered Clouds 20000 ft
Scattered Clouds 25000 ft
Windchill 38 °F
Dew Point 22 °F
Humidity 53%
Rainfall 0.00 in
Snow Depth Not available.
7:44 AM 6:09 PM
Waning Crescent, 8% visible
METAR KSDF 052356Z 21006KT 10SM SCT200 SCT250 06/M08 A3037 RMK AO2 SLP288 T00561078 10083 20056 51003
Pressure 30.38 in
Visibility 10.0 miles
Clouds Scattered Clouds 20000 ft
Scattered Clouds 25000 ft
Windchill 38 °F
Dew Point 22 °F
Humidity 53%
Rainfall 0.00 in
Snow Depth Not available.
7:44 AM 6:09 PM
Waning Crescent, 8% visible
METAR KSDF 052356Z 21006KT 10SM SCT200 SCT250 06/M08 A3037 RMK AO2 SLP288 T00561078 10083 20056 51003

10-Day Weather Forecast

Almanac

Astronomy

Feb. 05, 2016 Rise Set
Actual Time
Civil Twilight
Nautical Twilight
Astronomical Twilight
Moon
Length of Visible Light
Length of Day
Tomorrow will be .
, % of the Moon is Illuminated

Today's Extremes

State Highs State Lows

Community

WunderPhotos

Upload Photos

1,890,897 photos uploaded!

WunderBlog® & News

Nearby

Air Quality

  Air Quality AQ Index Pollutant
Not available.

Snow Depth

Station Depth Elevation

Earthquake Activity

City Distance Mag. Time & Date
Minimum magnitude displayed is 2.5.

Coastal Water Temperatures

Place Temperature

Stations

Nearby Weather Stations

Station Location Temp. Windchill Dew Point Humidity Wind Precip. Elev Updated Type
                   

Watches & Warnings

There are currently no watches in effect.